Aérodrome de la Montagne Noire

METAR LFMP TAF LFMP
5 °C
°C
-
°C
25m
Alter
22:24:46
LT
21:24
UTC
0 ft

1.000

2.000

3.000

4.000

5.000

VFR
<?= Yii::t('app', 'Wind direction') ?> <?= Yii::t('app', 'of'); ?>
320°
08:06
Sonne auf
61%
Luftfeuchtigkeit
Windscherung
Geschlossen/Schnee
RWY-Sichtweite
RWY Zustand
Vert. Sichtweite
Min. Sichtbarkeit
CAVOK
Trend
Korrektur
Besonderer Bericht
1028 hPa
QNH
METAR LFMP 292100Z AUTO 32007KT 290V350 CAVOK 05/M02 Q1028 NOSIG
Klar
5 kt
5 kt
22:00
VFR
10 kt
23:00
VFR
10 kt
00:00
VFR
10 kt
01:00
VFR
10 kt
02:00
VFR
10 kt
03:00
VFR
10 kt
04:00
VFR
10 kt
10 km+
Sichtweite
Keine
Wolkendecke
7 kt
Wind
metar-taf.com/LFMG

Metar-Taf.com

Visueller Decoder

Wir und Dritte verfolgen dein Internetverhalten auf unserer Website mit Cookies. Wenn du fortfährst, gehen wir davon aus, dass du mit unserer Cookie-Richtlinie einverstanden bist.